sensor_id;sensor_type;location;lat;lon;timestamp;temperature;humidity
2022;DHT22;1015;49.756;6.994;2022-10-16T00:01:16;11.90;99.90
2022;DHT22;1015;49.756;6.994;2022-10-16T00:03:46;11.90;99.90
2022;DHT22;1015;49.756;6.994;2022-10-16T00:06:15;11.90;99.90
2022;DHT22;1015;49.756;6.994;2022-10-16T00:08:43;11.80;99.90
2022;DHT22;1015;49.756;6.994;2022-10-16T00:11:13;11.80;99.90
2022;DHT22;1015;49.756;6.994;2022-10-16T00:13:42;11.90;99.90
2022;DHT22;1015;49.756;6.994;2022-10-16T00:16:10;11.90;99.90
2022;DHT22;1015;49.756;6.994;2022-10-16T00:18:38;11.90;99.90
2022;DHT22;1015;49.756;6.994;2022-10-16T00:21:09;11.80;99.90
2022;DHT22;1015;49.756;6.994;2022-10-16T00:23:37;11.80;99.90
2022;DHT22;1015;49.756;6.994;2022-10-16T00:26:08;11.80;99.90
2022;DHT22;1015;49.756;6.994;2022-10-16T00:28:37;11.80;99.90
2022;DHT22;1015;49.756;6.994;2022-10-16T00:31:05;11.80;99.90
2022;DHT22;1015;49.756;6.994;2022-10-16T00:33:32;11.90;99.90
2022;DHT22;1015;49.756;6.994;2022-10-16T00:35:59;12.00;99.90
2022;DHT22;1015;49.756;6.994;2022-10-16T00:38:28;11.90;99.90
2022;DHT22;1015;49.756;6.994;2022-10-16T00:40:55;11.90;99.90
2022;DHT22;1015;49.756;6.994;2022-10-16T00:43:35;12.10;99.90
2022;DHT22;1015;49.756;6.994;2022-10-16T00:46:03;12.10;99.90
2022;DHT22;1015;49.756;6.994;2022-10-16T00:48:31;12.10;99.90
2022;DHT22;1015;49.756;6.994;2022-10-16T00:50:59;12.10;99.90
2022;DHT22;1015;49.756;6.994;2022-10-16T00:53:28;12.10;99.90
2022;DHT22;1015;49.756;6.994;2022-10-16T00:55:56;12.10;99.90
2022;DHT22;1015;49.756;6.994;2022-10-16T00:58:23;12.10;99.90
2022;DHT22;1015;49.756;6.994;2022-10-16T01:00:50;12.10;99.90
2022;DHT22;1015;49.756;6.994;2022-10-16T01:03:26;12.10;99.90
2022;DHT22;1015;49.756;6.994;2022-10-16T01:05:59;12.10;99.90
2022;DHT22;1015;49.756;6.994;2022-10-16T01:08:42;12.10;99.90
2022;DHT22;1015;49.756;6.994;2022-10-16T01:11:17;12.10;99.90
2022;DHT22;1015;49.756;6.994;2022-10-16T01:13:48;12.10;99.90
2022;DHT22;1015;49.756;6.994;2022-10-16T01:16:23;12.10;99.90
2022;DHT22;1015;49.756;6.994;2022-10-16T01:18:58;12.10;99.90
2022;DHT22;1015;49.756;6.994;2022-10-16T01:21:32;12.10;99.90
2022;DHT22;1015;49.756;6.994;2022-10-16T01:24:08;12.00;99.90
2022;DHT22;1015;49.756;6.994;2022-10-16T01:27:00;12.00;99.90
2022;DHT22;1015;49.756;6.994;2022-10-16T01:29:32;12.00;99.90
2022;DHT22;1015;49.756;6.994;2022-10-16T01:32:07;12.00;99.90
2022;DHT22;1015;49.756;6.994;2022-10-16T01:34:40;11.90;99.90
2022;DHT22;1015;49.756;6.994;2022-10-16T01:37:12;12.00;99.90
2022;DHT22;1015;49.756;6.994;2022-10-16T01:39:42;12.00;99.90
2022;DHT22;1015;49.756;6.994;2022-10-16T01:42:17;12.00;99.90
2022;DHT22;1015;49.756;6.994;2022-10-16T01:44:46;12.00;99.90
2022;DHT22;1015;49.756;6.994;2022-10-16T01:47:15;11.90;99.90
2022;DHT22;1015;49.756;6.994;2022-10-16T01:49:45;11.90;99.90
2022;DHT22;1015;49.756;6.994;2022-10-16T01:52:15;11.90;99.90
2022;DHT22;1015;49.756;6.994;2022-10-16T01:54:46;12.00;99.90
2022;DHT22;1015;49.756;6.994;2022-10-16T01:57:16;11.90;99.90
2022;DHT22;1015;49.756;6.994;2022-10-16T01:59:47;11.90;99.90
2022;DHT22;1015;49.756;6.994;2022-10-16T02:02:17;11.90;99.90
2022;DHT22;1015;49.756;6.994;2022-10-16T02:04:49;11.90;99.90
2022;DHT22;1015;49.756;6.994;2022-10-16T02:07:18;11.90;99.90
2022;DHT22;1015;49.756;6.994;2022-10-16T02:09:46;11.90;99.90
2022;DHT22;1015;49.756;6.994;2022-10-16T02:12:19;11.90;99.90
2022;DHT22;1015;49.756;6.994;2022-10-16T02:14:49;11.90;99.90
2022;DHT22;1015;49.756;6.994;2022-10-16T02:17:18;11.90;99.90
2022;DHT22;1015;49.756;6.994;2022-10-16T02:19:47;11.90;99.90
2022;DHT22;1015;49.756;6.994;2022-10-16T02:22:18;11.90;99.90
2022;DHT22;1015;49.756;6.994;2022-10-16T02:24:50;11.90;99.90
2022;DHT22;1015;49.756;6.994;2022-10-16T02:27:25;11.90;99.90
2022;DHT22;1015;49.756;6.994;2022-10-16T02:29:56;11.90;99.90
2022;DHT22;1015;49.756;6.994;2022-10-16T02:32:30;11.90;99.90
2022;DHT22;1015;49.756;6.994;2022-10-16T02:34:59;11.90;99.90
2022;DHT22;1015;49.756;6.994;2022-10-16T02:37:27;11.90;99.90
2022;DHT22;1015;49.756;6.994;2022-10-16T02:39:56;11.90;99.90
2022;DHT22;1015;49.756;6.994;2022-10-16T02:42:29;12.00;99.90
2022;DHT22;1015;49.756;6.994;2022-10-16T02:44:59;11.90;99.90
2022;DHT22;1015;49.756;6.994;2022-10-16T02:47:26;11.90;99.90
2022;DHT22;1015;49.756;6.994;2022-10-16T02:49:54;11.90;99.90
2022;DHT22;1015;49.756;6.994;2022-10-16T02:52:21;11.90;99.90
2022;DHT22;1015;49.756;6.994;2022-10-16T02:54:48;12.00;99.90
2022;DHT22;1015;49.756;6.994;2022-10-16T02:57:15;11.90;99.90
2022;DHT22;1015;49.756;6.994;2022-10-16T02:59:44;11.90;99.90
2022;DHT22;1015;49.756;6.994;2022-10-16T03:02:12;12.00;99.90
2022;DHT22;1015;49.756;6.994;2022-10-16T03:04:39;12.00;99.90
2022;DHT22;1015;49.756;6.994;2022-10-16T03:07:06;12.00;99.90
2022;DHT22;1015;49.756;6.994;2022-10-16T03:09:34;12.00;99.90
2022;DHT22;1015;49.756;6.994;2022-10-16T03:12:01;12.00;99.90
2022;DHT22;1015;49.756;6.994;2022-10-16T03:14:29;12.10;99.90
2022;DHT22;1015;49.756;6.994;2022-10-16T03:16:57;12.10;99.90
2022;DHT22;1015;49.756;6.994;2022-10-16T03:19:24;12.10;99.90
2022;DHT22;1015;49.756;6.994;2022-10-16T03:21:52;12.10;99.90
2022;DHT22;1015;49.756;6.994;2022-10-16T03:24:19;12.10;99.90
2022;DHT22;1015;49.756;6.994;2022-10-16T03:26:46;12.20;99.90
2022;DHT22;1015;49.756;6.994;2022-10-16T03:29:13;12.20;99.90
2022;DHT22;1015;49.756;6.994;2022-10-16T03:31:41;12.20;99.90
2022;DHT22;1015;49.756;6.994;2022-10-16T03:34:09;12.20;99.90
2022;DHT22;1015;49.756;6.994;2022-10-16T03:36:37;12.20;99.90
2022;DHT22;1015;49.756;6.994;2022-10-16T03:39:04;12.20;99.90
2022;DHT22;1015;49.756;6.994;2022-10-16T03:41:31;12.20;99.90
2022;DHT22;1015;49.756;6.994;2022-10-16T03:43:58;12.20;99.90
2022;DHT22;1015;49.756;6.994;2022-10-16T03:46:25;12.30;99.90
2022;DHT22;1015;49.756;6.994;2022-10-16T03:48:52;12.30;99.90
2022;DHT22;1015;49.756;6.994;2022-10-16T03:51:21;12.30;99.90
2022;DHT22;1015;49.756;6.994;2022-10-16T03:53:48;12.30;99.90
2022;DHT22;1015;49.756;6.994;2022-10-16T03:56:16;12.30;99.90
2022;DHT22;1015;49.756;6.994;2022-10-16T03:58:43;12.30;99.90
2022;DHT22;1015;49.756;6.994;2022-10-16T04:01:10;12.30;99.90
2022;DHT22;1015;49.756;6.994;2022-10-16T04:03:37;12.30;99.90
2022;DHT22;1015;49.756;6.994;2022-10-16T04:06:05;12.30;99.90
2022;DHT22;1015;49.756;6.994;2022-10-16T04:08:34;12.30;99.90
2022;DHT22;1015;49.756;6.994;2022-10-16T04:11:02;12.30;99.90
2022;DHT22;1015;49.756;6.994;2022-10-16T04:13:30;12.30;99.90
2022;DHT22;1015;49.756;6.994;2022-10-16T04:15:57;12.30;99.90
2022;DHT22;1015;49.756;6.994;2022-10-16T04:18:24;12.40;99.90
2022;DHT22;1015;49.756;6.994;2022-10-16T04:20:53;12.40;99.90
2022;DHT22;1015;49.756;6.994;2022-10-16T04:23:20;12.40;99.90
2022;DHT22;1015;49.756;6.994;2022-10-16T04:25:50;12.40;99.90
2022;DHT22;1015;49.756;6.994;2022-10-16T04:28:17;12.40;99.90
2022;DHT22;1015;49.756;6.994;2022-10-16T04:30:45;12.40;99.90
2022;DHT22;1015;49.756;6.994;2022-10-16T04:33:12;12.40;99.90
2022;DHT22;1015;49.756;6.994;2022-10-16T04:35:39;12.40;99.90
2022;DHT22;1015;49.756;6.994;2022-10-16T04:38:07;12.40;99.90
2022;DHT22;1015;49.756;6.994;2022-10-16T04:40:34;12.40;99.90
2022;DHT22;1015;49.756;6.994;2022-10-16T04:43:04;12.40;99.90
2022;DHT22;1015;49.756;6.994;2022-10-16T04:45:31;12.40;99.90
2022;DHT22;1015;49.756;6.994;2022-10-16T04:47:59;12.40;99.90
2022;DHT22;1015;49.756;6.994;2022-10-16T04:50:26;12.40;99.90
2022;DHT22;1015;49.756;6.994;2022-10-16T04:52:53;12.40;99.90
2022;DHT22;1015;49.756;6.994;2022-10-16T04:55:20;12.40;99.90
2022;DHT22;1015;49.756;6.994;2022-10-16T04:57:47;12.40;99.90
2022;DHT22;1015;49.756;6.994;2022-10-16T05:00:16;12.40;99.90
2022;DHT22;1015;49.756;6.994;2022-10-16T05:02:44;12.40;99.90
2022;DHT22;1015;49.756;6.994;2022-10-16T05:05:11;12.40;99.90
2022;DHT22;1015;49.756;6.994;2022-10-16T05:07:40;12.40;99.90
2022;DHT22;1015;49.756;6.994;2022-10-16T05:10:07;12.40;99.90
2022;DHT22;1015;49.756;6.994;2022-10-16T05:12:34;12.30;99.90
2022;DHT22;1015;49.756;6.994;2022-10-16T05:15:02;12.30;99.90
2022;DHT22;1015;49.756;6.994;2022-10-16T05:17:30;12.30;99.90
2022;DHT22;1015;49.756;6.994;2022-10-16T05:19:58;12.30;99.90
2022;DHT22;1015;49.756;6.994;2022-10-16T05:22:25;12.30;99.90
2022;DHT22;1015;49.756;6.994;2022-10-16T05:24:52;12.30;99.90
2022;DHT22;1015;49.756;6.994;2022-10-16T05:27:19;12.20;99.90
2022;DHT22;1015;49.756;6.994;2022-10-16T05:29:47;12.20;99.90
2022;DHT22;1015;49.756;6.994;2022-10-16T05:32:16;12.20;99.90
2022;DHT22;1015;49.756;6.994;2022-10-16T05:34:45;12.20;99.90
2022;DHT22;1015;49.756;6.994;2022-10-16T05:37:12;12.20;99.90
2022;DHT22;1015;49.756;6.994;2022-10-16T05:39:39;12.20;99.90
2022;DHT22;1015;49.756;6.994;2022-10-16T05:42:06;12.20;99.90
2022;DHT22;1015;49.756;6.994;2022-10-16T05:44:34;12.20;99.90
2022;DHT22;1015;49.756;6.994;2022-10-16T05:47:01;12.20;99.90
2022;DHT22;1015;49.756;6.994;2022-10-16T05:49:28;12.20;99.90
2022;DHT22;1015;49.756;6.994;2022-10-16T05:51:57;12.30;99.90
2022;DHT22;1015;49.756;6.994;2022-10-16T05:54:24;12.30;99.90
2022;DHT22;1015;49.756;6.994;2022-10-16T05:56:51;12.30;99.90
2022;DHT22;1015;49.756;6.994;2022-10-16T05:59:18;12.20;99.90
2022;DHT22;1015;49.756;6.994;2022-10-16T06:01:46;12.30;99.90
2022;DHT22;1015;49.756;6.994;2022-10-16T06:04:13;12.20;99.90
2022;DHT22;1015;49.756;6.994;2022-10-16T06:06:40;12.20;99.90
2022;DHT22;1015;49.756;6.994;2022-10-16T06:09:09;12.20;99.90
2022;DHT22;1015;49.756;6.994;2022-10-16T06:11:37;12.20;99.90
2022;DHT22;1015;49.756;6.994;2022-10-16T06:14:04;12.20;99.90
2022;DHT22;1015;49.756;6.994;2022-10-16T06:16:33;12.30;99.90
2022;DHT22;1015;49.756;6.994;2022-10-16T06:19:00;12.30;99.90
2022;DHT22;1015;49.756;6.994;2022-10-16T06:21:28;12.30;99.90
2022;DHT22;1015;49.756;6.994;2022-10-16T06:23:56;12.30;99.90
2022;DHT22;1015;49.756;6.994;2022-10-16T06:26:26;12.30;99.90
2022;DHT22;1015;49.756;6.994;2022-10-16T06:28:54;12.30;99.90
2022;DHT22;1015;49.756;6.994;2022-10-16T06:31:22;12.20;99.90
2022;DHT22;1015;49.756;6.994;2022-10-16T06:33:53;12.30;99.90
2022;DHT22;1015;49.756;6.994;2022-10-16T06:36:22;12.30;99.90
2022;DHT22;1015;49.756;6.994;2022-10-16T06:38:50;12.30;99.90
2022;DHT22;1015;49.756;6.994;2022-10-16T06:41:18;12.30;99.90
2022;DHT22;1015;49.756;6.994;2022-10-16T06:43:47;12.30;99.90
2022;DHT22;1015;49.756;6.994;2022-10-16T06:46:16;12.30;99.90
2022;DHT22;1015;49.756;6.994;2022-10-16T06:48:44;12.30;99.90
2022;DHT22;1015;49.756;6.994;2022-10-16T06:51:13;12.30;99.90
2022;DHT22;1015;49.756;6.994;2022-10-16T06:53:42;12.30;99.90
2022;DHT22;1015;49.756;6.994;2022-10-16T06:56:11;12.30;99.90
2022;DHT22;1015;49.756;6.994;2022-10-16T06:58:39;12.40;99.90
2022;DHT22;1015;49.756;6.994;2022-10-16T07:01:08;12.40;99.90
2022;DHT22;1015;49.756;6.994;2022-10-16T07:03:36;12.40;99.90
2022;DHT22;1015;49.756;6.994;2022-10-16T07:06:05;12.50;99.90
2022;DHT22;1015;49.756;6.994;2022-10-16T07:08:32;12.60;99.90
2022;DHT22;1015;49.756;6.994;2022-10-16T07:11:00;12.60;99.90
2022;DHT22;1015;49.756;6.994;2022-10-16T07:13:28;12.60;99.90
2022;DHT22;1015;49.756;6.994;2022-10-16T07:15:55;12.50;99.90
2022;DHT22;1015;49.756;6.994;2022-10-16T07:18:23;12.50;99.90
2022;DHT22;1015;49.756;6.994;2022-10-16T07:20:52;12.50;99.90
2022;DHT22;1015;49.756;6.994;2022-10-16T07:23:20;12.60;99.90
2022;DHT22;1015;49.756;6.994;2022-10-16T07:25:53;12.60;99.90
2022;DHT22;1015;49.756;6.994;2022-10-16T07:28:21;12.60;99.90
2022;DHT22;1015;49.756;6.994;2022-10-16T07:30:51;12.60;99.90
2022;DHT22;1015;49.756;6.994;2022-10-16T07:33:21;12.60;99.90
2022;DHT22;1015;49.756;6.994;2022-10-16T07:35:53;12.70;99.90
2022;DHT22;1015;49.756;6.994;2022-10-16T07:38:21;12.70;99.90
2022;DHT22;1015;49.756;6.994;2022-10-16T07:40:55;12.70;99.90
2022;DHT22;1015;49.756;6.994;2022-10-16T07:43:22;12.80;99.90
2022;DHT22;1015;49.756;6.994;2022-10-16T07:45:50;12.80;99.90
2022;DHT22;1015;49.756;6.994;2022-10-16T07:48:18;12.90;99.90
2022;DHT22;1015;49.756;6.994;2022-10-16T07:50:49;12.90;99.90
2022;DHT22;1015;49.756;6.994;2022-10-16T07:53:18;13.00;99.90
2022;DHT22;1015;49.756;6.994;2022-10-16T07:55:45;12.90;99.90
2022;DHT22;1015;49.756;6.994;2022-10-16T07:58:12;13.00;99.90
2022;DHT22;1015;49.756;6.994;2022-10-16T08:00:40;13.00;99.90
2022;DHT22;1015;49.756;6.994;2022-10-16T08:03:09;13.00;99.90
2022;DHT22;1015;49.756;6.994;2022-10-16T08:05:39;13.10;99.90
2022;DHT22;1015;49.756;6.994;2022-10-16T08:08:10;13.20;99.90
2022;DHT22;1015;49.756;6.994;2022-10-16T08:10:44;13.40;99.90
2022;DHT22;1015;49.756;6.994;2022-10-16T08:13:11;13.70;99.90
2022;DHT22;1015;49.756;6.994;2022-10-16T08:15:41;13.80;99.90
2022;DHT22;1015;49.756;6.994;2022-10-16T08:18:10;13.90;99.90
2022;DHT22;1015;49.756;6.994;2022-10-16T08:20:38;14.10;99.90
2022;DHT22;1015;49.756;6.994;2022-10-16T08:23:07;14.00;99.90
2022;DHT22;1015;49.756;6.994;2022-10-16T08:25:38;14.10;99.90
2022;DHT22;1015;49.756;6.994;2022-10-16T08:28:10;14.30;99.90
2022;DHT22;1015;49.756;6.994;2022-10-16T08:30:37;14.30;99.90
2022;DHT22;1015;49.756;6.994;2022-10-16T08:33:08;14.30;99.90
2022;DHT22;1015;49.756;6.994;2022-10-16T08:35:35;14.30;99.90
2022;DHT22;1015;49.756;6.994;2022-10-16T08:38:03;14.10;99.90
2022;DHT22;1015;49.756;6.994;2022-10-16T08:40:32;14.10;99.90
2022;DHT22;1015;49.756;6.994;2022-10-16T08:43:24;14.00;99.90
2022;DHT22;1015;49.756;6.994;2022-10-16T08:46:10;13.90;99.90
2022;DHT22;1015;49.756;6.994;2022-10-16T08:48:46;14.00;99.90
2022;DHT22;1015;49.756;6.994;2022-10-16T08:51:22;13.90;99.90
2022;DHT22;1015;49.756;6.994;2022-10-16T08:53:54;13.90;99.90
2022;DHT22;1015;49.756;6.994;2022-10-16T08:56:23;13.90;99.90
2022;DHT22;1015;49.756;6.994;2022-10-16T08:58:53;13.80;99.90
2022;DHT22;1015;49.756;6.994;2022-10-16T09:01:22;13.90;99.90
2022;DHT22;1015;49.756;6.994;2022-10-16T09:04:22;14.00;99.90
2022;DHT22;1015;49.756;6.994;2022-10-16T09:06:53;14.00;99.90
2022;DHT22;1015;49.756;6.994;2022-10-16T09:09:55;14.10;99.90
2022;DHT22;1015;49.756;6.994;2022-10-16T09:12:31;14.10;99.90
2022;DHT22;1015;49.756;6.994;2022-10-16T09:15:13;14.40;99.90
2022;DHT22;1015;49.756;6.994;2022-10-16T09:17:52;14.20;99.90
2022;DHT22;1015;49.756;6.994;2022-10-16T09:20:38;14.30;99.90
2022;DHT22;1015;49.756;6.994;2022-10-16T09:23:16;14.60;99.90
2022;DHT22;1015;49.756;6.994;2022-10-16T09:25:46;14.50;99.90
2022;DHT22;1015;49.756;6.994;2022-10-16T09:28:14;14.40;99.90
2022;DHT22;1015;49.756;6.994;2022-10-16T09:30:44;14.50;99.90
2022;DHT22;1015;49.756;6.994;2022-10-16T09:33:13;14.70;99.90
2022;DHT22;1015;49.756;6.994;2022-10-16T09:35:43;15.00;99.90
2022;DHT22;1015;49.756;6.994;2022-10-16T09:38:22;14.70;99.90
2022;DHT22;1015;49.756;6.994;2022-10-16T09:40:50;14.30;99.90
2022;DHT22;1015;49.756;6.994;2022-10-16T09:43:21;14.50;99.90
2022;DHT22;1015;49.756;6.994;2022-10-16T09:45:59;14.50;99.90
2022;DHT22;1015;49.756;6.994;2022-10-16T09:48:31;14.50;99.90
2022;DHT22;1015;49.756;6.994;2022-10-16T09:51:02;14.50;99.90
2022;DHT22;1015;49.756;6.994;2022-10-16T09:53:41;14.50;99.90
2022;DHT22;1015;49.756;6.994;2022-10-16T09:56:11;14.80;99.90
2022;DHT22;1015;49.756;6.994;2022-10-16T09:58:50;14.70;99.90
2022;DHT22;1015;49.756;6.994;2022-10-16T10:01:20;14.80;99.90
2022;DHT22;1015;49.756;6.994;2022-10-16T10:03:48;14.80;99.90
2022;DHT22;1015;49.756;6.994;2022-10-16T10:06:23;15.00;99.90
2022;DHT22;1015;49.756;6.994;2022-10-16T10:09:00;15.50;99.90
2022;DHT22;1015;49.756;6.994;2022-10-16T10:11:43;15.40;99.90
2022;DHT22;1015;49.756;6.994;2022-10-16T10:14:19;15.40;99.90
2022;DHT22;1015;49.756;6.994;2022-10-16T10:16:49;15.80;99.90
2022;DHT22;1015;49.756;6.994;2022-10-16T10:19:19;15.80;99.90
2022;DHT22;1015;49.756;6.994;2022-10-16T10:21:47;16.20;99.90
2022;DHT22;1015;49.756;6.994;2022-10-16T10:24:16;16.30;99.90
2022;DHT22;1015;49.756;6.994;2022-10-16T10:26:51;16.30;99.90
2022;DHT22;1015;49.756;6.994;2022-10-16T10:29:28;16.50;99.90
2022;DHT22;1015;49.756;6.994;2022-10-16T10:32:09;16.70;99.90
2022;DHT22;1015;49.756;6.994;2022-10-16T10:37:41;17.20;99.90
2022;DHT22;1015;49.756;6.994;2022-10-16T10:40:21;17.40;99.90
2022;DHT22;1015;49.756;6.994;2022-10-16T10:42:55;17.60;99.90
2022;DHT22;1015;49.756;6.994;2022-10-16T10:45:27;17.60;99.90
2022;DHT22;1015;49.756;6.994;2022-10-16T10:48:18;17.30;99.90
2022;DHT22;1015;49.756;6.994;2022-10-16T10:50:51;17.20;99.90
2022;DHT22;1015;49.756;6.994;2022-10-16T10:53:29;17.00;99.90
2022;DHT22;1015;49.756;6.994;2022-10-16T10:56:06;17.00;99.90
2022;DHT22;1015;49.756;6.994;2022-10-16T10:59:02;17.10;99.90
2022;DHT22;1015;49.756;6.994;2022-10-16T11:01:40;16.80;99.90
2022;DHT22;1015;49.756;6.994;2022-10-16T11:04:34;16.70;99.90
2022;DHT22;1015;49.756;6.994;2022-10-16T11:07:14;16.50;99.90
2022;DHT22;1015;49.756;6.994;2022-10-16T11:09:45;16.40;99.90
2022;DHT22;1015;49.756;6.994;2022-10-16T11:12:16;16.50;99.90
2022;DHT22;1015;49.756;6.994;2022-10-16T11:14:48;16.40;99.90
2022;DHT22;1015;49.756;6.994;2022-10-16T11:17:22;16.60;99.90
2022;DHT22;1015;49.756;6.994;2022-10-16T11:19:56;16.70;99.90
2022;DHT22;1015;49.756;6.994;2022-10-16T11:22:29;16.80;99.90
2022;DHT22;1015;49.756;6.994;2022-10-16T11:25:02;16.80;99.90
2022;DHT22;1015;49.756;6.994;2022-10-16T11:27:37;17.00;99.90
2022;DHT22;1015;49.756;6.994;2022-10-16T11:30:14;17.20;99.90
2022;DHT22;1015;49.756;6.994;2022-10-16T11:32:58;17.20;99.90
2022;DHT22;1015;49.756;6.994;2022-10-16T11:35:37;17.30;99.90
2022;DHT22;1015;49.756;6.994;2022-10-16T11:38:12;17.00;99.90
2022;DHT22;1015;49.756;6.994;2022-10-16T11:40:43;17.00;99.90
2022;DHT22;1015;49.756;6.994;2022-10-16T11:43:17;17.20;99.90
2022;DHT22;1015;49.756;6.994;2022-10-16T11:45:51;17.20;99.90
2022;DHT22;1015;49.756;6.994;2022-10-16T11:48:26;17.10;99.90
2022;DHT22;1015;49.756;6.994;2022-10-16T11:50:58;17.00;99.90
2022;DHT22;1015;49.756;6.994;2022-10-16T11:53:39;16.90;99.90
2022;DHT22;1015;49.756;6.994;2022-10-16T11:56:12;16.90;99.90
2022;DHT22;1015;49.756;6.994;2022-10-16T11:58:44;17.00;99.90
2022;DHT22;1015;49.756;6.994;2022-10-16T12:01:19;17.20;99.90
2022;DHT22;1015;49.756;6.994;2022-10-16T12:04:00;17.20;99.90
2022;DHT22;1015;49.756;6.994;2022-10-16T12:06:36;17.60;99.90
2022;DHT22;1015;49.756;6.994;2022-10-16T12:09:04;17.80;99.90
2022;DHT22;1015;49.756;6.994;2022-10-16T12:11:35;18.00;99.90
2022;DHT22;1015;49.756;6.994;2022-10-16T12:14:33;18.10;99.90
2022;DHT22;1015;49.756;6.994;2022-10-16T12:17:02;17.70;99.90
2022;DHT22;1015;49.756;6.994;2022-10-16T12:19:32;17.40;99.90
2022;DHT22;1015;49.756;6.994;2022-10-16T12:22:02;17.40;99.90
2022;DHT22;1015;49.756;6.994;2022-10-16T12:24:34;17.10;99.90
2022;DHT22;1015;49.756;6.994;2022-10-16T12:27:03;17.00;99.90
2022;DHT22;1015;49.756;6.994;2022-10-16T12:29:36;16.70;99.90
2022;DHT22;1015;49.756;6.994;2022-10-16T12:32:19;16.70;99.90
2022;DHT22;1015;49.756;6.994;2022-10-16T12:34:50;16.80;99.90
2022;DHT22;1015;49.756;6.994;2022-10-16T12:37:22;16.80;99.90
2022;DHT22;1015;49.756;6.994;2022-10-16T12:39:52;16.80;99.90
2022;DHT22;1015;49.756;6.994;2022-10-16T12:42:23;16.90;99.90
2022;DHT22;1015;49.756;6.994;2022-10-16T12:44:59;17.00;99.90
2022;DHT22;1015;49.756;6.994;2022-10-16T12:47:36;17.10;99.90
2022;DHT22;1015;49.756;6.994;2022-10-16T12:50:28;17.00;99.90
2022;DHT22;1015;49.756;6.994;2022-10-16T12:52:58;17.00;99.90
2022;DHT22;1015;49.756;6.994;2022-10-16T12:55:26;16.90;99.90
2022;DHT22;1015;49.756;6.994;2022-10-16T12:58:09;17.00;99.90
2022;DHT22;1015;49.756;6.994;2022-10-16T13:00:44;17.10;99.90
2022;DHT22;1015;49.756;6.994;2022-10-16T13:06:28;17.20;99.90
2022;DHT22;1015;49.756;6.994;2022-10-16T13:09:19;17.20;99.90
2022;DHT22;1015;49.756;6.994;2022-10-16T13:11:57;17.50;99.90
2022;DHT22;1015;49.756;6.994;2022-10-16T13:14:44;17.80;99.90
2022;DHT22;1015;49.756;6.994;2022-10-16T13:17:20;17.80;99.90
2022;DHT22;1015;49.756;6.994;2022-10-16T13:19:55;17.70;99.90
2022;DHT22;1015;49.756;6.994;2022-10-16T13:22:30;17.60;99.90
2022;DHT22;1015;49.756;6.994;2022-10-16T13:25:19;17.80;99.90
2022;DHT22;1015;49.756;6.994;2022-10-16T13:27:54;17.90;99.90
2022;DHT22;1015;49.756;6.994;2022-10-16T13:30:24;17.90;99.90
2022;DHT22;1015;49.756;6.994;2022-10-16T13:32:57;17.80;99.90
2022;DHT22;1015;49.756;6.994;2022-10-16T13:35:27;18.00;99.90
2022;DHT22;1015;49.756;6.994;2022-10-16T13:38:12;17.90;99.90
2022;DHT22;1015;49.756;6.994;2022-10-16T13:41:00;18.00;99.90
2022;DHT22;1015;49.756;6.994;2022-10-16T13:43:31;18.00;99.90
2022;DHT22;1015;49.756;6.994;2022-10-16T13:46:01;17.90;99.90
2022;DHT22;1015;49.756;6.994;2022-10-16T13:48:29;17.90;99.90
2022;DHT22;1015;49.756;6.994;2022-10-16T13:51:01;17.90;99.90
2022;DHT22;1015;49.756;6.994;2022-10-16T13:53:31;17.80;99.90
2022;DHT22;1015;49.756;6.994;2022-10-16T13:56:04;17.80;99.90
2022;DHT22;1015;49.756;6.994;2022-10-16T13:58:31;17.90;99.90
2022;DHT22;1015;49.756;6.994;2022-10-16T14:01:01;17.90;99.90
2022;DHT22;1015;49.756;6.994;2022-10-16T14:03:29;17.90;99.90
2022;DHT22;1015;49.756;6.994;2022-10-16T14:06:00;17.80;99.90
2022;DHT22;1015;49.756;6.994;2022-10-16T14:08:29;17.80;99.90
2022;DHT22;1015;49.756;6.994;2022-10-16T14:10:58;17.70;99.90
2022;DHT22;1015;49.756;6.994;2022-10-16T14:13:31;17.70;99.90
2022;DHT22;1015;49.756;6.994;2022-10-16T14:16:04;17.50;99.90
2022;DHT22;1015;49.756;6.994;2022-10-16T14:18:32;17.30;99.90
2022;DHT22;1015;49.756;6.994;2022-10-16T14:21:05;17.30;99.90
2022;DHT22;1015;49.756;6.994;2022-10-16T14:23:35;17.10;99.90
2022;DHT22;1015;49.756;6.994;2022-10-16T14:26:12;17.20;99.90
2022;DHT22;1015;49.756;6.994;2022-10-16T14:28:42;17.10;99.90
2022;DHT22;1015;49.756;6.994;2022-10-16T14:31:26;17.10;99.90
2022;DHT22;1015;49.756;6.994;2022-10-16T14:33:54;17.10;99.90
2022;DHT22;1015;49.756;6.994;2022-10-16T14:36:21;17.00;99.90
2022;DHT22;1015;49.756;6.994;2022-10-16T14:38:57;16.80;99.90
2022;DHT22;1015;49.756;6.994;2022-10-16T14:41:26;16.90;99.90
2022;DHT22;1015;49.756;6.994;2022-10-16T14:43:56;16.90;99.90
2022;DHT22;1015;49.756;6.994;2022-10-16T14:46:29;16.90;99.90
2022;DHT22;1015;49.756;6.994;2022-10-16T14:49:02;17.10;99.90
2022;DHT22;1015;49.756;6.994;2022-10-16T14:51:30;17.10;99.90
2022;DHT22;1015;49.756;6.994;2022-10-16T14:53:57;17.00;99.90
2022;DHT22;1015;49.756;6.994;2022-10-16T14:56:26;17.00;99.90
2022;DHT22;1015;49.756;6.994;2022-10-16T14:58:57;17.00;99.90
2022;DHT22;1015;49.756;6.994;2022-10-16T15:01:24;17.10;99.90
2022;DHT22;1015;49.756;6.994;2022-10-16T15:03:51;17.10;99.90
2022;DHT22;1015;49.756;6.994;2022-10-16T15:06:20;17.20;99.90
2022;DHT22;1015;49.756;6.994;2022-10-16T15:08:48;17.20;99.90
2022;DHT22;1015;49.756;6.994;2022-10-16T15:11:17;17.00;99.90
2022;DHT22;1015;49.756;6.994;2022-10-16T15:13:45;16.90;99.90
2022;DHT22;1015;49.756;6.994;2022-10-16T15:16:15;17.00;99.90
2022;DHT22;1015;49.756;6.994;2022-10-16T15:18:43;17.10;99.90
2022;DHT22;1015;49.756;6.994;2022-10-16T15:21:19;17.00;99.90
2022;DHT22;1015;49.756;6.994;2022-10-16T15:23:49;17.10;99.90
2022;DHT22;1015;49.756;6.994;2022-10-16T15:26:16;17.10;99.90
2022;DHT22;1015;49.756;6.994;2022-10-16T15:28:44;17.00;99.90
2022;DHT22;1015;49.756;6.994;2022-10-16T15:31:12;17.00;99.90
2022;DHT22;1015;49.756;6.994;2022-10-16T15:33:40;16.90;99.90
2022;DHT22;1015;49.756;6.994;2022-10-16T15:36:07;16.90;99.90
2022;DHT22;1015;49.756;6.994;2022-10-16T15:38:35;16.60;99.90
2022;DHT22;1015;49.756;6.994;2022-10-16T15:41:02;16.60;99.90
2022;DHT22;1015;49.756;6.994;2022-10-16T15:43:30;16.60;99.90
2022;DHT22;1015;49.756;6.994;2022-10-16T15:46:01;16.50;99.90
2022;DHT22;1015;49.756;6.994;2022-10-16T15:48:31;16.50;99.90
2022;DHT22;1015;49.756;6.994;2022-10-16T15:50:58;16.40;99.90
2022;DHT22;1015;49.756;6.994;2022-10-16T15:53:26;16.30;99.90
2022;DHT22;1015;49.756;6.994;2022-10-16T15:55:53;16.40;99.90
2022;DHT22;1015;49.756;6.994;2022-10-16T15:58:20;16.40;99.90
2022;DHT22;1015;49.756;6.994;2022-10-16T16:00:54;16.30;99.90
2022;DHT22;1015;49.756;6.994;2022-10-16T16:03:22;16.30;99.90
2022;DHT22;1015;49.756;6.994;2022-10-16T16:05:51;16.20;99.90
2022;DHT22;1015;49.756;6.994;2022-10-16T16:08:18;16.20;99.90
2022;DHT22;1015;49.756;6.994;2022-10-16T16:10:45;16.10;99.90
2022;DHT22;1015;49.756;6.994;2022-10-16T16:13:13;16.20;99.90
2022;DHT22;1015;49.756;6.994;2022-10-16T16:15:40;16.00;99.90
2022;DHT22;1015;49.756;6.994;2022-10-16T16:18:07;16.00;99.90
2022;DHT22;1015;49.756;6.994;2022-10-16T16:20:35;16.00;99.90
2022;DHT22;1015;49.756;6.994;2022-10-16T16:23:04;15.90;99.90
2022;DHT22;1015;49.756;6.994;2022-10-16T16:25:31;15.80;99.90
2022;DHT22;1015;49.756;6.994;2022-10-16T16:27:58;15.80;99.90
2022;DHT22;1015;49.756;6.994;2022-10-16T16:30:25;15.70;99.90
2022;DHT22;1015;49.756;6.994;2022-10-16T16:32:52;15.60;99.90